createdAt,value
2022-08-11T00:01:19.813Z,34.73
2022-08-11T00:03:54.785Z,34.59
2022-08-11T00:06:39.621Z,33.77
2022-08-11T00:09:18.558Z,34.71
2022-08-11T00:11:49.130Z,33.60
2022-08-11T00:14:21.058Z,33.88
2022-08-11T00:17:02.750Z,33.10
2022-08-11T00:20:13.866Z,32.23
2022-08-11T00:22:24.529Z,33.15
2022-08-11T00:24:55.126Z,32.90
2022-08-11T00:27:35.700Z,33.53
2022-08-11T00:30:05.581Z,33.70
2022-08-11T00:32:33.757Z,33.39
2022-08-11T00:35:51.170Z,33.81
2022-08-11T00:37:54.895Z,33.67
2022-08-11T00:40:41.602Z,33.59
2022-08-11T00:43:39.515Z,33.23
2022-08-11T00:46:09.511Z,33.19
2022-08-11T00:49:03.755Z,33.67
2022-08-11T00:52:04.979Z,33.33
2022-08-11T00:54:56.205Z,33.57
2022-08-11T00:57:51.736Z,33.77
2022-08-11T01:00:24.403Z,33.64
2022-08-11T01:03:13.964Z,33.83
2022-08-11T01:05:46.230Z,33.79
2022-08-11T01:08:27.845Z,33.40
2022-08-11T01:11:24.285Z,33.99
2022-08-11T01:14:16.336Z,33.84
2022-08-11T01:17:09.988Z,34.34
2022-08-11T01:20:47.463Z,34.66
2022-08-11T01:23:00.923Z,34.67
2022-08-11T01:25:57.601Z,34.93
2022-08-11T01:29:05.972Z,34.93
2022-08-11T01:31:44.906Z,34.85
2022-08-11T01:34:27.145Z,34.95
2022-08-11T01:37:12.531Z,35.09
2022-08-11T01:40:01.187Z,35.08
2022-08-11T01:43:24.216Z,35.19
2022-08-11T01:46:06.382Z,35.39
2022-08-11T01:48:41.181Z,35.07
2022-08-11T01:51:44.744Z,34.92
2022-08-11T01:54:41.405Z,35.10
2022-08-11T01:57:13.962Z,35.51
2022-08-11T01:59:52.544Z,35.31
2022-08-11T02:02:45.341Z,35.47
2022-08-11T02:05:29.901Z,35.46
2022-08-11T02:08:15.494Z,35.28
2022-08-11T02:11:15.983Z,35.44
2022-08-11T02:13:57.911Z,35.50
2022-08-11T02:16:24.862Z,35.59
2022-08-11T02:19:36.584Z,35.52
2022-08-11T02:22:28.196Z,35.87
2022-08-11T02:25:02.262Z,35.67
2022-08-11T02:28:15.593Z,35.96
2022-08-11T02:32:14.871Z,36.16
2022-08-11T02:34:59.439Z,35.83
2022-08-11T02:37:33.269Z,35.97
2022-08-11T02:40:06.377Z,36.16
2022-08-11T02:42:45.035Z,36.23
2022-08-11T02:45:30.909Z,36.35
2022-08-11T02:48:35.457Z,36.33
2022-08-11T02:51:26.196Z,36.32
2022-08-11T02:54:34.666Z,36.72
2022-08-11T02:57:11.280Z,36.89
2022-08-11T03:00:07.810Z,37.55
2022-08-11T03:02:56.302Z,37.34
2022-08-11T03:05:52.868Z,36.89
2022-08-11T03:08:30.827Z,36.76
2022-08-11T03:11:22.462Z,36.77
2022-08-11T03:14:35.755Z,36.90
2022-08-11T03:17:25.661Z,37.19
2022-08-11T03:20:37.793Z,37.13
2022-08-11T03:23:33.398Z,36.96
2022-08-11T03:26:09.485Z,37.17
2022-08-11T03:28:48.802Z,37.03
2022-08-11T03:31:27.639Z,37.23
2022-08-11T03:34:07.882Z,37.72
2022-08-11T03:37:15.714Z,37.77
2022-08-11T03:39:56.575Z,37.55
2022-08-11T03:42:32.727Z,38.15
2022-08-11T03:45:21.077Z,37.94
2022-08-11T03:47:54.941Z,37.86
2022-08-11T03:50:43.947Z,38.08
2022-08-11T03:53:13.978Z,37.69
2022-08-11T03:56:06.835Z,38.07
2022-08-11T03:59:24.257Z,37.85
2022-08-11T04:02:28.036Z,38.10
2022-08-11T04:05:01.113Z,38.32
2022-08-11T04:08:01.631Z,38.25
2022-08-11T04:10:49.319Z,38.59
2022-08-11T04:14:20.541Z,38.66
2022-08-11T04:17:09.031Z,37.71
2022-08-11T04:20:03.973Z,38.33
2022-08-11T04:23:07.942Z,39.56
2022-08-11T04:26:01.854Z,38.86
2022-08-11T04:28:53.460Z,38.98
2022-08-11T04:32:00.632Z,39.53
2022-08-11T04:35:10.458Z,38.99
2022-08-11T04:37:55.241Z,38.88
2022-08-11T04:40:37.387Z,38.48
2022-08-11T04:43:28.797Z,38.78
2022-08-11T04:46:27.977Z,38.43
2022-08-11T04:49:34.224Z,38.43
2022-08-11T04:52:38.510Z,38.75
2022-08-11T04:55:38.995Z,38.75
2022-08-11T04:59:15.435Z,38.70
2022-08-11T05:02:07.112Z,38.87
2022-08-11T05:05:35.944Z,38.75
2022-08-11T05:08:53.674Z,39.85
2022-08-11T05:11:38.940Z,39.12
2022-08-11T05:15:04.549Z,39.03
2022-08-11T05:17:56.810Z,39.43
2022-08-11T05:20:44.606Z,39.41
2022-08-11T05:23:45.670Z,40.23
2022-08-11T05:26:46.347Z,39.50
2022-08-11T05:29:47.772Z,39.24
2022-08-11T05:32:43.514Z,38.80
2022-08-11T05:36:02.362Z,39.14
2022-08-11T05:38:44.195Z,38.81
2022-08-11T05:41:43.270Z,40.52
2022-08-11T05:44:36.743Z,39.40
2022-08-11T05:47:28.947Z,38.51
2022-08-11T05:50:28.926Z,38.85
2022-08-11T05:53:22.911Z,38.34
2022-08-11T05:56:10.867Z,38.59
2022-08-11T05:58:51.889Z,38.43
2022-08-11T06:01:31.478Z,38.50
2022-08-11T06:04:20.620Z,37.55
2022-08-11T06:07:10.822Z,37.84
2022-08-11T06:09:47.809Z,38.52
2022-08-11T06:12:25.072Z,37.84
2022-08-11T06:14:58.919Z,37.56
2022-08-11T06:17:38.930Z,37.91
2022-08-11T06:20:12.168Z,37.15
2022-08-11T06:22:51.011Z,37.59
2022-08-11T06:25:21.386Z,37.09
2022-08-11T06:27:59.182Z,37.04
2022-08-11T06:30:43.041Z,37.47
2022-08-11T06:33:32.230Z,38.02
2022-08-11T06:36:31.299Z,37.14
2022-08-11T06:39:14.923Z,37.22
2022-08-11T06:41:56.975Z,35.91
2022-08-11T06:44:41.596Z,36.33
2022-08-11T06:47:17.625Z,37.03
2022-08-11T06:50:07.262Z,35.97
2022-08-11T06:52:43.816Z,36.75
2022-08-11T06:55:58.015Z,36.61
2022-08-11T06:58:51.865Z,36.10
2022-08-11T07:01:46.800Z,35.48
2022-08-11T07:04:37.248Z,34.83
2022-08-11T07:07:47.687Z,35.45
2022-08-11T07:10:51.080Z,34.71
2022-08-11T07:13:45.625Z,34.44
2022-08-11T07:16:25.002Z,35.25
2022-08-11T07:19:18.205Z,34.53
2022-08-11T07:22:08.546Z,33.12
2022-08-11T07:25:21.531Z,32.08
2022-08-11T07:28:16.583Z,32.92
2022-08-11T07:30:58.779Z,33.04
2022-08-11T07:34:06.500Z,33.38
2022-08-11T07:36:41.221Z,34.74
2022-08-11T07:39:21.325Z,32.12
2022-08-11T07:41:53.665Z,30.99
2022-08-11T07:44:34.946Z,30.41
2022-08-11T07:47:23.177Z,31.54
2022-08-11T07:50:12.668Z,31.57
2022-08-11T07:52:52.807Z,33.26
2022-08-11T07:55:48.781Z,30.25
2022-08-11T07:58:44.866Z,31.23
2022-08-11T08:01:37.986Z,33.37
2022-08-11T08:04:26.247Z,31.59
2022-08-11T08:07:12.756Z,31.23
2022-08-11T08:10:00.919Z,30.34
2022-08-11T08:12:47.929Z,30.73
2022-08-11T08:15:35.961Z,31.88
2022-08-11T08:18:09.442Z,32.36
2022-08-11T08:20:56.194Z,33.02
2022-08-11T08:23:34.054Z,32.53
2022-08-11T08:26:28.220Z,29.72
2022-08-11T08:29:17.369Z,31.35
2022-08-11T08:31:46.546Z,30.75
2022-08-11T08:34:15.796Z,30.65
2022-08-11T08:36:45.030Z,27.80
2022-08-11T08:39:14.608Z,29.60
2022-08-11T08:41:43.977Z,29.67
2022-08-11T08:44:37.358Z,29.92
2022-08-11T08:47:06.263Z,29.61
2022-08-11T08:49:42.240Z,29.20
2022-08-11T08:52:25.354Z,27.22
2022-08-11T08:55:07.055Z,26.64
2022-08-11T08:57:39.407Z,27.61
2022-08-11T09:00:12.546Z,25.49
2022-08-11T09:02:41.947Z,25.68
2022-08-11T09:05:10.513Z,28.63
2022-08-11T09:07:40.763Z,28.14
2022-08-11T09:10:12.136Z,28.96
2022-08-11T09:12:43.025Z,29.13
2022-08-11T09:15:12.099Z,29.03
2022-08-11T09:17:48.069Z,29.22
2022-08-11T09:20:21.037Z,27.96
2022-08-11T09:24:06.665Z,26.51
2022-08-11T09:26:19.766Z,25.93
2022-08-11T09:28:50.816Z,27.20
2022-08-11T09:31:40.602Z,25.24
2022-08-11T09:34:13.614Z,26.70
2022-08-11T09:37:02.321Z,25.67
2022-08-11T09:39:55.003Z,27.48
2022-08-11T09:42:43.970Z,25.90
2022-08-11T09:45:16.908Z,24.13
2022-08-11T09:47:51.570Z,25.61
2022-08-11T09:50:19.555Z,25.96
2022-08-11T09:53:41.065Z,24.63
2022-08-11T09:55:49.950Z,26.10
2022-08-11T09:58:42.605Z,23.89
2022-08-11T10:01:08.216Z,24.93
2022-08-11T10:03:41.622Z,24.36
2022-08-11T10:06:34.161Z,24.64
2022-08-11T10:09:06.518Z,22.84
2022-08-11T10:11:36.932Z,23.05
2022-08-11T10:14:33.178Z,21.62
2022-08-11T10:17:09.873Z,20.64
2022-08-11T10:19:38.586Z,21.84
2022-08-11T10:22:27.552Z,20.67
2022-08-11T10:25:19.837Z,19.28
2022-08-11T10:28:28.350Z,23.06
2022-08-11T10:31:05.700Z,22.47
2022-08-11T10:33:59.517Z,22.06
2022-08-11T10:36:50.130Z,21.10
2022-08-11T10:39:32.591Z,19.53
2022-08-11T10:42:34.929Z,18.82
2022-08-11T10:45:28.728Z,16.80
2022-08-11T10:47:58.758Z,18.65
2022-08-11T10:50:45.350Z,20.08
2022-08-11T10:53:32.892Z,21.52
2022-08-11T10:56:18.797Z,21.90
2022-08-11T10:58:49.753Z,20.58
2022-08-11T11:01:23.007Z,22.44
2022-08-11T11:04:05.085Z,21.35
2022-08-11T11:06:37.541Z,19.48
2022-08-11T11:09:11.824Z,19.55
2022-08-11T11:12:03.904Z,19.93
2022-08-11T11:14:58.208Z,20.63
2022-08-11T11:17:58.714Z,20.39
2022-08-11T11:20:47.093Z,21.35
2022-08-11T11:23:36.188Z,20.46
2022-08-11T11:26:27.060Z,20.87
2022-08-11T11:29:31.827Z,20.46
2022-08-11T11:32:24.255Z,17.45
2022-08-11T11:35:10.199Z,20.59
2022-08-11T11:37:39.882Z,20.69
2022-08-11T11:40:13.038Z,20.26
2022-08-11T11:42:43.837Z,20.91
2022-08-11T11:45:24.119Z,20.88
2022-08-11T11:47:54.833Z,20.12
2022-08-11T11:50:31.852Z,19.13
2022-08-11T11:53:02.350Z,19.07
2022-08-11T11:55:30.851Z,18.45
2022-08-11T11:58:19.281Z,19.09
2022-08-11T12:01:06.200Z,18.72
2022-08-11T12:03:36.314Z,19.42
2022-08-11T12:06:04.881Z,20.24
2022-08-11T12:08:32.767Z,19.76
2022-08-11T12:11:25.179Z,20.13
2022-08-11T12:13:57.636Z,18.76
2022-08-11T12:16:34.633Z,18.10
2022-08-11T12:19:12.077Z,17.11
2022-08-11T12:22:00.909Z,18.64
2022-08-11T12:24:49.551Z,16.92
2022-08-11T12:27:28.606Z,16.05
2022-08-11T12:30:22.799Z,17.20
2022-08-11T12:32:50.569Z,18.69
2022-08-11T12:35:17.727Z,18.86
2022-08-11T12:38:09.406Z,16.72
2022-08-11T12:41:14.957Z,15.64
2022-08-11T12:44:05.357Z,17.65
2022-08-11T12:46:35.837Z,18.28
2022-08-11T12:49:47.507Z,16.70
2022-08-11T12:52:22.892Z,16.48
2022-08-11T12:55:01.435Z,16.11
2022-08-11T12:57:55.809Z,17.73
2022-08-11T13:00:42.989Z,17.08
2022-08-11T13:03:31.040Z,15.15
2022-08-11T13:06:04.365Z,17.17
2022-08-11T13:08:35.876Z,16.33
2022-08-11T13:11:56.719Z,16.80
2022-08-11T13:14:15.209Z,17.36
2022-08-11T13:17:03.941Z,18.07
2022-08-11T13:19:32.576Z,17.36
2022-08-11T13:22:03.486Z,17.78
2022-08-11T13:24:34.451Z,17.27
2022-08-11T13:27:08.792Z,16.25
2022-08-11T13:29:42.113Z,13.82
2022-08-11T13:32:13.399Z,16.12
2022-08-11T13:34:47.122Z,17.44
2022-08-11T13:37:20.869Z,15.97
2022-08-11T13:40:10.250Z,17.37
2022-08-11T13:42:42.500Z,15.72
2022-08-11T13:45:11.061Z,16.91
2022-08-11T13:48:00.612Z,18.29
2022-08-11T13:50:56.359Z,15.99
2022-08-11T13:53:35.095Z,17.05
2022-08-11T13:56:35.426Z,16.24
2022-08-11T13:59:16.472Z,16.20
2022-08-11T14:02:22.272Z,17.50
2022-08-11T14:05:18.159Z,17.66
2022-08-11T14:07:54.333Z,14.64
2022-08-11T14:10:33.454Z,15.58
2022-08-11T14:13:41.685Z,17.49
2022-08-11T14:16:45.846Z,17.08
2022-08-11T14:19:15.490Z,17.55
2022-08-11T14:22:07.823Z,17.68
2022-08-11T14:24:59.054Z,17.36
2022-08-11T14:28:30.904Z,17.53
2022-08-11T14:31:01.268Z,16.26
2022-08-11T14:33:58.430Z,17.58
2022-08-11T14:36:20.985Z,16.99
2022-08-11T14:39:17.772Z,17.18
2022-08-11T14:42:10.863Z,17.88
2022-08-11T14:45:04.347Z,17.63
2022-08-11T14:47:47.627Z,17.00
2022-08-11T14:50:37.509Z,16.83
2022-08-11T14:53:10.852Z,17.35
2022-08-11T14:56:02.501Z,16.30
2022-08-11T14:58:31.699Z,17.49
2022-08-11T15:01:28.961Z,18.40
2022-08-11T15:04:34.167Z,17.77
2022-08-11T15:06:55.701Z,16.36
2022-08-11T15:09:23.408Z,16.65
2022-08-11T15:12:33.326Z,17.02
2022-08-11T15:15:17.721Z,17.96
2022-08-11T15:17:53.360Z,17.69
2022-08-11T15:20:40.477Z,16.16
2022-08-11T15:23:47.350Z,17.72
2022-08-11T15:26:58.120Z,17.32
2022-08-11T15:30:05.394Z,18.41
2022-08-11T15:32:53.540Z,17.43
2022-08-11T15:35:39.954Z,17.16
2022-08-11T15:38:23.199Z,17.53
2022-08-11T15:41:20.317Z,17.31
2022-08-11T15:44:15.051Z,16.65
2022-08-11T15:46:52.508Z,16.92
2022-08-11T15:50:11.813Z,16.97
2022-08-11T15:52:32.259Z,16.59
2022-08-11T15:55:05.895Z,17.22
2022-08-11T15:57:56.295Z,18.22
2022-08-11T16:00:45.862Z,17.19
2022-08-11T16:04:06.195Z,18.00
2022-08-11T16:06:33.597Z,18.33
2022-08-11T16:09:18.302Z,18.56
2022-08-11T16:11:47.952Z,18.32
2022-08-11T16:14:42.273Z,18.20
2022-08-11T16:17:17.427Z,17.50
2022-08-11T16:19:51.721Z,18.01
2022-08-11T16:22:40.080Z,17.15
2022-08-11T16:27:02.420Z,16.80
2022-08-11T16:28:09.604Z,17.11
2022-08-11T16:30:51.515Z,16.97
2022-08-11T16:33:22.550Z,17.16
2022-08-11T16:36:32.375Z,16.89
2022-08-11T16:39:02.168Z,16.28
2022-08-11T16:41:51.273Z,16.86
2022-08-11T16:44:38.968Z,16.24
2022-08-11T16:47:24.150Z,15.36
2022-08-11T16:50:12.132Z,17.88
2022-08-11T16:52:39.317Z,18.17
2022-08-11T16:55:06.843Z,18.08
2022-08-11T16:57:53.741Z,17.98
2022-08-11T17:00:21.270Z,18.47
2022-08-11T17:03:11.564Z,17.14
2022-08-11T17:06:12.947Z,17.82
2022-08-11T17:09:05.048Z,16.74
2022-08-11T17:11:58.755Z,18.21
2022-08-11T17:14:56.209Z,17.55
2022-08-11T17:17:45.927Z,18.38
2022-08-11T17:20:42.524Z,18.19
2022-08-11T17:23:26.290Z,17.33
2022-08-11T17:26:03.314Z,18.50
2022-08-11T17:28:34.131Z,19.09
2022-08-11T17:31:22.197Z,19.78
2022-08-11T17:34:10.332Z,18.37
2022-08-11T17:36:44.585Z,18.51
2022-08-11T17:39:13.643Z,17.73
2022-08-11T17:42:01.244Z,19.46
2022-08-11T17:44:49.655Z,18.68
2022-08-11T17:47:38.080Z,18.54
2022-08-11T17:50:09.301Z,19.00
2022-08-11T17:53:05.585Z,20.09
2022-08-11T17:55:53.995Z,20.48
2022-08-11T17:58:42.155Z,18.23
2022-08-11T18:01:13.315Z,19.02
2022-08-11T18:03:56.475Z,19.76
2022-08-11T18:06:34.170Z,20.35
2022-08-11T18:09:23.580Z,19.83
2022-08-11T18:12:12.943Z,20.73
2022-08-11T18:15:03.087Z,19.35
2022-08-11T18:17:49.231Z,19.41
2022-08-11T18:20:36.274Z,20.27
2022-08-11T18:23:45.684Z,21.33
2022-08-11T18:26:38.273Z,20.97
2022-08-11T18:29:26.543Z,19.94
2022-08-11T18:32:21.949Z,19.39
2022-08-11T18:35:13.814Z,20.20
2022-08-11T18:38:06.132Z,19.62
2022-08-11T18:40:54.151Z,19.96
2022-08-11T18:43:43.683Z,20.64
2022-08-11T18:46:32.301Z,20.81
2022-08-11T18:50:00.932Z,21.34
2022-08-11T18:52:35.717Z,20.45
2022-08-11T18:55:24.099Z,20.20
2022-08-11T18:58:12.885Z,20.87
2022-08-11T19:01:00.997Z,20.75
2022-08-11T19:03:49.872Z,20.64
2022-08-11T19:06:41.785Z,20.64
2022-08-11T19:09:35.228Z,21.13
2022-08-11T19:12:25.467Z,20.93
2022-08-11T19:15:12.802Z,21.73
2022-08-11T19:18:01.258Z,21.45
2022-08-11T19:20:49.976Z,21.75
2022-08-11T19:23:40.510Z,21.60
2022-08-11T19:26:27.633Z,21.66
2022-08-11T19:30:07.644Z,22.14
2022-08-11T19:32:21.643Z,22.43
2022-08-11T19:35:09.313Z,22.55
2022-08-11T19:37:57.228Z,23.98
2022-08-11T19:40:43.787Z,23.63
2022-08-11T19:43:30.504Z,23.76
2022-08-11T19:46:20.074Z,22.92
2022-08-11T19:49:10.335Z,22.77
2022-08-11T19:51:57.442Z,22.96
2022-08-11T19:54:49.423Z,23.05
2022-08-11T19:57:39.935Z,23.44
2022-08-11T20:00:32.921Z,23.92
2022-08-11T20:03:20.555Z,23.91
2022-08-11T20:06:09.098Z,23.88
2022-08-11T20:08:59.368Z,24.15
2022-08-11T20:11:51.150Z,24.24
2022-08-11T20:14:40.035Z,24.86
2022-08-11T20:17:31.504Z,24.65
2022-08-11T20:20:20.193Z,24.66
2022-08-11T20:23:09.762Z,24.98
2022-08-11T20:26:13.963Z,24.97
2022-08-11T20:29:09.001Z,24.82
2022-08-11T20:31:56.264Z,25.37
2022-08-11T20:34:42.754Z,25.52
2022-08-11T20:37:31.287Z,25.32
2022-08-11T20:40:23.821Z,25.22
2022-08-11T20:44:06.286Z,25.59
2022-08-11T20:46:18.537Z,26.02
2022-08-11T20:49:07.198Z,25.63
2022-08-11T20:51:55.248Z,25.51
2022-08-11T20:54:44.656Z,25.97
2022-08-11T20:57:57.774Z,26.30
2022-08-11T21:00:40.009Z,26.49
2022-08-11T21:03:36.572Z,26.94
2022-08-11T21:06:34.785Z,26.89
2022-08-11T21:09:58.101Z,27.25
2022-08-11T21:15:47.229Z,26.81
2022-08-11T21:18:29.546Z,27.30
2022-08-11T21:21:18.560Z,27.81
2022-08-11T21:24:07.555Z,27.87
2022-08-11T21:27:01.554Z,28.12
2022-08-11T21:29:52.951Z,28.11
2022-08-11T21:32:40.600Z,28.47
2022-08-11T21:35:28.164Z,28.51
2022-08-11T21:38:16.250Z,28.63
2022-08-11T21:41:01.850Z,28.52
2022-08-11T21:43:50.769Z,28.70
2022-08-11T21:46:39.902Z,28.75
2022-08-11T21:49:28.860Z,28.73
2022-08-11T21:52:14.865Z,29.06
2022-08-11T21:55:01.236Z,29.21
2022-08-11T21:57:50.285Z,29.25
2022-08-11T22:00:36.995Z,29.14
2022-08-11T22:03:23.596Z,29.65
2022-08-11T22:06:11.171Z,29.54
2022-08-11T22:08:56.891Z,29.74
2022-08-11T22:11:42.459Z,30.09
2022-08-11T22:14:28.142Z,30.19
2022-08-11T22:17:13.626Z,30.24
2022-08-11T22:20:01.057Z,30.29
2022-08-11T22:22:52.860Z,30.59
2022-08-11T22:25:44.271Z,30.45
2022-08-11T22:28:38.219Z,30.65
2022-08-11T22:31:25.906Z,30.63
2022-08-11T22:34:11.564Z,31.19
2022-08-11T22:36:58.892Z,31.01
2022-08-11T22:39:45.684Z,31.32
2022-08-11T22:42:48.491Z,31.71
2022-08-11T22:45:34.446Z,31.83
2022-08-11T22:48:23.181Z,31.55
2022-08-11T22:51:10.335Z,31.32
2022-08-11T22:53:59.104Z,31.54
2022-08-11T22:56:49.710Z,32.00
2022-08-11T22:59:37.277Z,32.42
2022-08-11T23:02:24.929Z,33.23
2022-08-11T23:05:11.243Z,32.75
2022-08-11T23:07:57.346Z,32.26
2022-08-11T23:10:45.338Z,33.37
2022-08-11T23:13:31.799Z,33.80
2022-08-11T23:16:17.890Z,33.70
2022-08-11T23:19:04.565Z,33.11
2022-08-11T23:21:53.021Z,32.69
2022-08-11T23:24:40.188Z,32.02
2022-08-11T23:27:28.280Z,34.76
2022-08-11T23:30:19.246Z,33.36
2022-08-11T23:33:08.251Z,33.80
2022-08-11T23:35:57.924Z,33.08
2022-08-11T23:38:47.234Z,32.65
2022-08-11T23:41:33.715Z,32.82
2022-08-11T23:44:24.399Z,32.98
2022-08-11T23:47:14.173Z,32.62
2022-08-11T23:50:01.407Z,32.57
2022-08-11T23:52:48.356Z,32.76
2022-08-11T23:55:38.412Z,32.89
2022-08-11T23:58:28.064Z,32.83
